sensor_id;sensor_type;location;lat;lon;timestamp;temperature;humidity
7174;DHT22;3628;48.654;8.932;2023-08-24T00:00:39;22.00;99.90
7174;DHT22;3628;48.654;8.932;2023-08-24T00:03:04;21.90;99.90
7174;DHT22;3628;48.654;8.932;2023-08-24T00:05:33;22.00;99.90
7174;DHT22;3628;48.654;8.932;2023-08-24T00:07:59;21.80;99.90
7174;DHT22;3628;48.654;8.932;2023-08-24T00:10:25;21.60;99.90
7174;DHT22;3628;48.654;8.932;2023-08-24T00:12:51;21.70;99.90
7174;DHT22;3628;48.654;8.932;2023-08-24T00:15:16;21.50;99.90
7174;DHT22;3628;48.654;8.932;2023-08-24T00:17:42;21.50;99.90
7174;DHT22;3628;48.654;8.932;2023-08-24T00:20:07;21.40;99.90
7174;DHT22;3628;48.654;8.932;2023-08-24T00:22:36;21.40;99.90
7174;DHT22;3628;48.654;8.932;2023-08-24T00:25:02;21.40;99.90
7174;DHT22;3628;48.654;8.932;2023-08-24T00:27:28;21.40;99.90
7174;DHT22;3628;48.654;8.932;2023-08-24T00:29:53;21.50;99.90
7174;DHT22;3628;48.654;8.932;2023-08-24T00:32:19;21.50;99.90
7174;DHT22;3628;48.654;8.932;2023-08-24T00:34:44;21.70;99.90
7174;DHT22;3628;48.654;8.932;2023-08-24T00:37:10;21.80;99.90
7174;DHT22;3628;48.654;8.932;2023-08-24T00:39:35;21.80;99.90
7174;DHT22;3628;48.654;8.932;2023-08-24T00:42:02;21.80;99.90
7174;DHT22;3628;48.654;8.932;2023-08-24T00:44:28;21.70;99.90
7174;DHT22;3628;48.654;8.932;2023-08-24T00:46:53;21.50;99.90
7174;DHT22;3628;48.654;8.932;2023-08-24T00:49:20;21.40;99.90
7174;DHT22;3628;48.654;8.932;2023-08-24T00:51:46;21.30;99.90
7174;DHT22;3628;48.654;8.932;2023-08-24T00:54:11;21.40;99.90
7174;DHT22;3628;48.654;8.932;2023-08-24T00:56:37;21.40;99.90
7174;DHT22;3628;48.654;8.932;2023-08-24T00:59:03;21.40;99.90
7174;DHT22;3628;48.654;8.932;2023-08-24T01:01:28;21.50;99.90
7174;DHT22;3628;48.654;8.932;2023-08-24T01:03:54;21.50;99.90
7174;DHT22;3628;48.654;8.932;2023-08-24T01:06:19;21.50;99.90
7174;DHT22;3628;48.654;8.932;2023-08-24T01:08:45;21.50;99.90
7174;DHT22;3628;48.654;8.932;2023-08-24T01:13:49;21.20;99.90
7174;DHT22;3628;48.654;8.932;2023-08-24T01:16:25;21.20;99.90
7174;DHT22;3628;48.654;8.932;2023-08-24T01:18:55;21.30;99.90
7174;DHT22;3628;48.654;8.932;2023-08-24T01:21:22;21.30;99.90
7174;DHT22;3628;48.654;8.932;2023-08-24T01:24:12;21.40;99.90
7174;DHT22;3628;48.654;8.932;2023-08-24T01:26:39;21.40;99.90
7174;DHT22;3628;48.654;8.932;2023-08-24T01:29:05;21.50;99.90
7174;DHT22;3628;48.654;8.932;2023-08-24T01:31:32;21.50;99.90
7174;DHT22;3628;48.654;8.932;2023-08-24T01:33:58;21.60;99.90
7174;DHT22;3628;48.654;8.932;2023-08-24T01:36:24;21.60;99.90
7174;DHT22;3628;48.654;8.932;2023-08-24T01:38:58;21.60;99.90
7174;DHT22;3628;48.654;8.932;2023-08-24T01:41:29;21.50;99.90
7174;DHT22;3628;48.654;8.932;2023-08-24T01:43:58;21.30;99.90
7174;DHT22;3628;48.654;8.932;2023-08-24T01:46:24;21.20;99.90
7174;DHT22;3628;48.654;8.932;2023-08-24T01:48:52;21.40;99.90
7174;DHT22;3628;48.654;8.932;2023-08-24T01:51:18;21.30;99.90
7174;DHT22;3628;48.654;8.932;2023-08-24T01:53:45;21.30;99.90
7174;DHT22;3628;48.654;8.932;2023-08-24T01:56:12;21.30;99.90
7174;DHT22;3628;48.654;8.932;2023-08-24T01:58:38;21.30;99.90
7174;DHT22;3628;48.654;8.932;2023-08-24T02:01:05;21.30;99.90
7174;DHT22;3628;48.654;8.932;2023-08-24T02:03:31;21.30;99.90
7174;DHT22;3628;48.654;8.932;2023-08-24T02:05:56;21.40;99.90
7174;DHT22;3628;48.654;8.932;2023-08-24T02:08:22;21.40;99.90
7174;DHT22;3628;48.654;8.932;2023-08-24T02:10:48;21.40;99.90
7174;DHT22;3628;48.654;8.932;2023-08-24T02:13:13;21.20;99.90
7174;DHT22;3628;48.654;8.932;2023-08-24T02:15:39;21.20;99.90
7174;DHT22;3628;48.654;8.932;2023-08-24T02:18:06;21.20;99.90
7174;DHT22;3628;48.654;8.932;2023-08-24T02:20:35;21.10;99.90
7174;DHT22;3628;48.654;8.932;2023-08-24T02:23:01;21.10;99.90
7174;DHT22;3628;48.654;8.932;2023-08-24T02:25:27;21.10;99.90
7174;DHT22;3628;48.654;8.932;2023-08-24T02:27:52;21.10;99.90
7174;DHT22;3628;48.654;8.932;2023-08-24T02:30:18;21.10;99.90
7174;DHT22;3628;48.654;8.932;2023-08-24T02:32:43;21.20;99.90
7174;DHT22;3628;48.654;8.932;2023-08-24T02:35:09;21.30;99.90
7174;DHT22;3628;48.654;8.932;2023-08-24T02:37:34;21.10;99.90
7174;DHT22;3628;48.654;8.932;2023-08-24T02:40:00;21.00;99.90
7174;DHT22;3628;48.654;8.932;2023-08-24T02:42:26;20.90;99.90
7174;DHT22;3628;48.654;8.932;2023-08-24T02:44:52;20.80;99.90
7174;DHT22;3628;48.654;8.932;2023-08-24T02:47:17;20.70;99.90
7174;DHT22;3628;48.654;8.932;2023-08-24T02:49:43;20.70;99.90
7174;DHT22;3628;48.654;8.932;2023-08-24T02:52:08;20.50;99.90
7174;DHT22;3628;48.654;8.932;2023-08-24T02:54:34;20.40;99.90
7174;DHT22;3628;48.654;8.932;2023-08-24T02:56:59;20.50;99.90
7174;DHT22;3628;48.654;8.932;2023-08-24T02:59:25;20.40;99.90
7174;DHT22;3628;48.654;8.932;2023-08-24T03:01:51;20.50;99.90
7174;DHT22;3628;48.654;8.932;2023-08-24T03:04:19;20.30;99.90
7174;DHT22;3628;48.654;8.932;2023-08-24T03:06:44;20.30;99.90
7174;DHT22;3628;48.654;8.932;2023-08-24T03:09:10;20.30;99.90
7174;DHT22;3628;48.654;8.932;2023-08-24T03:11:35;20.50;99.90
7174;DHT22;3628;48.654;8.932;2023-08-24T03:14:01;20.60;99.90
7174;DHT22;3628;48.654;8.932;2023-08-24T03:16:26;20.60;99.90
7174;DHT22;3628;48.654;8.932;2023-08-24T03:18:52;20.80;99.90
7174;DHT22;3628;48.654;8.932;2023-08-24T03:21:17;20.90;99.90
7174;DHT22;3628;48.654;8.932;2023-08-24T03:23:43;20.90;99.90
7174;DHT22;3628;48.654;8.932;2023-08-24T03:26:08;20.90;99.90
7174;DHT22;3628;48.654;8.932;2023-08-24T03:28:34;21.00;99.90
7174;DHT22;3628;48.654;8.932;2023-08-24T03:31:00;21.00;99.90
7174;DHT22;3628;48.654;8.932;2023-08-24T03:33:26;21.00;99.90
7174;DHT22;3628;48.654;8.932;2023-08-24T03:35:53;20.90;99.90
7174;DHT22;3628;48.654;8.932;2023-08-24T03:38:18;20.90;99.90
7174;DHT22;3628;48.654;8.932;2023-08-24T03:40:44;20.90;99.90
7174;DHT22;3628;48.654;8.932;2023-08-24T03:43:10;20.80;99.90
7174;DHT22;3628;48.654;8.932;2023-08-24T03:45:36;20.70;99.90
7174;DHT22;3628;48.654;8.932;2023-08-24T03:48:01;20.80;99.90
7174;DHT22;3628;48.654;8.932;2023-08-24T03:50:27;20.90;99.90
7174;DHT22;3628;48.654;8.932;2023-08-24T03:52:54;21.00;99.90
7174;DHT22;3628;48.654;8.932;2023-08-24T03:55:20;21.00;99.90
7174;DHT22;3628;48.654;8.932;2023-08-24T03:57:46;21.00;99.90
7174;DHT22;3628;48.654;8.932;2023-08-24T04:00:12;21.00;99.90
7174;DHT22;3628;48.654;8.932;2023-08-24T04:02:38;20.80;99.90
7174;DHT22;3628;48.654;8.932;2023-08-24T04:05:04;20.70;99.90
7174;DHT22;3628;48.654;8.932;2023-08-24T04:07:30;20.60;99.90
7174;DHT22;3628;48.654;8.932;2023-08-24T04:09:56;20.30;99.90
7174;DHT22;3628;48.654;8.932;2023-08-24T04:12:22;20.20;99.90
7174;DHT22;3628;48.654;8.932;2023-08-24T04:14:47;20.20;99.90
7174;DHT22;3628;48.654;8.932;2023-08-24T04:17:13;20.20;99.90
7174;DHT22;3628;48.654;8.932;2023-08-24T04:19:39;20.10;99.90
7174;DHT22;3628;48.654;8.932;2023-08-24T04:22:04;20.10;99.90
7174;DHT22;3628;48.654;8.932;2023-08-24T04:24:30;20.20;99.90
7174;DHT22;3628;48.654;8.932;2023-08-24T04:26:56;20.30;99.90
7174;DHT22;3628;48.654;8.932;2023-08-24T04:29:21;20.50;99.90
7174;DHT22;3628;48.654;8.932;2023-08-24T04:31:47;20.50;99.90
7174;DHT22;3628;48.654;8.932;2023-08-24T04:34:13;20.30;99.90
7174;DHT22;3628;48.654;8.932;2023-08-24T04:36:38;20.20;99.90
7174;DHT22;3628;48.654;8.932;2023-08-24T04:39:04;20.20;99.90
7174;DHT22;3628;48.654;8.932;2023-08-24T04:41:29;20.30;99.90
7174;DHT22;3628;48.654;8.932;2023-08-24T04:43:55;20.40;99.90
7174;DHT22;3628;48.654;8.932;2023-08-24T04:46:21;20.30;99.90
7174;DHT22;3628;48.654;8.932;2023-08-24T04:48:46;20.20;99.90
7174;DHT22;3628;48.654;8.932;2023-08-24T04:51:12;20.20;99.90
7174;DHT22;3628;48.654;8.932;2023-08-24T04:53:37;20.20;99.90
7174;DHT22;3628;48.654;8.932;2023-08-24T04:56:03;20.20;99.90
7174;DHT22;3628;48.654;8.932;2023-08-24T04:58:29;20.30;99.90
7174;DHT22;3628;48.654;8.932;2023-08-24T05:00:54;20.30;99.90
7174;DHT22;3628;48.654;8.932;2023-08-24T05:03:21;20.40;99.90
7174;DHT22;3628;48.654;8.932;2023-08-24T05:05:47;20.40;99.90
7174;DHT22;3628;48.654;8.932;2023-08-24T05:08:12;20.60;99.90
7174;DHT22;3628;48.654;8.932;2023-08-24T05:10:38;20.60;99.90
7174;DHT22;3628;48.654;8.932;2023-08-24T05:13:04;20.60;99.90
7174;DHT22;3628;48.654;8.932;2023-08-24T05:15:29;20.60;99.90
7174;DHT22;3628;48.654;8.932;2023-08-24T05:17:55;20.70;99.90
7174;DHT22;3628;48.654;8.932;2023-08-24T05:20:25;20.60;99.90
7174;DHT22;3628;48.654;8.932;2023-08-24T05:22:51;20.60;99.90
7174;DHT22;3628;48.654;8.932;2023-08-24T05:25:16;20.70;99.90
7174;DHT22;3628;48.654;8.932;2023-08-24T05:27:42;20.60;99.90
7174;DHT22;3628;48.654;8.932;2023-08-24T05:30:08;20.70;99.90
7174;DHT22;3628;48.654;8.932;2023-08-24T05:32:35;20.70;99.90
7174;DHT22;3628;48.654;8.932;2023-08-24T05:35:07;20.70;99.90
7174;DHT22;3628;48.654;8.932;2023-08-24T05:37:34;20.80;99.90
7174;DHT22;3628;48.654;8.932;2023-08-24T05:40:00;20.80;99.90
7174;DHT22;3628;48.654;8.932;2023-08-24T05:42:26;20.90;99.90
7174;DHT22;3628;48.654;8.932;2023-08-24T05:44:52;20.90;99.90
7174;DHT22;3628;48.654;8.932;2023-08-24T05:47:18;21.10;99.90
7174;DHT22;3628;48.654;8.932;2023-08-24T05:49:43;21.20;99.90
7174;DHT22;3628;48.654;8.932;2023-08-24T05:52:09;21.20;99.90
7174;DHT22;3628;48.654;8.932;2023-08-24T05:54:36;21.40;99.90
7174;DHT22;3628;48.654;8.932;2023-08-24T05:57:02;21.40;99.90
7174;DHT22;3628;48.654;8.932;2023-08-24T05:59:29;21.50;99.90
7174;DHT22;3628;48.654;8.932;2023-08-24T06:01:55;21.50;99.90
7174;DHT22;3628;48.654;8.932;2023-08-24T06:04:20;21.50;99.90
7174;DHT22;3628;48.654;8.932;2023-08-24T06:06:46;21.50;99.90
7174;DHT22;3628;48.654;8.932;2023-08-24T06:09:12;21.50;99.90
7174;DHT22;3628;48.654;8.932;2023-08-24T06:11:37;21.50;99.90
7174;DHT22;3628;48.654;8.932;2023-08-24T06:14:03;21.60;99.90
7174;DHT22;3628;48.654;8.932;2023-08-24T06:16:29;21.70;99.90
7174;DHT22;3628;48.654;8.932;2023-08-24T06:18:55;21.70;99.90
7174;DHT22;3628;48.654;8.932;2023-08-24T06:21:20;21.70;99.90
7174;DHT22;3628;48.654;8.932;2023-08-24T06:23:46;21.80;99.90
7174;DHT22;3628;48.654;8.932;2023-08-24T06:26:13;21.90;99.90
7174;DHT22;3628;48.654;8.932;2023-08-24T06:28:39;21.90;99.90
7174;DHT22;3628;48.654;8.932;2023-08-24T06:31:04;21.80;99.90
7174;DHT22;3628;48.654;8.932;2023-08-24T06:33:34;22.00;99.90
7174;DHT22;3628;48.654;8.932;2023-08-24T06:36:01;22.00;99.90
7174;DHT22;3628;48.654;8.932;2023-08-24T06:38:26;21.90;99.90
7174;DHT22;3628;48.654;8.932;2023-08-24T06:40:52;22.00;99.90
7174;DHT22;3628;48.654;8.932;2023-08-24T06:43:17;22.00;99.90
7174;DHT22;3628;48.654;8.932;2023-08-24T06:45:46;21.90;99.90
7174;DHT22;3628;48.654;8.932;2023-08-24T06:48:12;21.80;99.90
7174;DHT22;3628;48.654;8.932;2023-08-24T06:50:37;21.80;99.90
7174;DHT22;3628;48.654;8.932;2023-08-24T06:53:04;21.70;99.90
7174;DHT22;3628;48.654;8.932;2023-08-24T06:55:29;21.70;99.90
7174;DHT22;3628;48.654;8.932;2023-08-24T06:57:55;21.80;99.90
7174;DHT22;3628;48.654;8.932;2023-08-24T07:00:21;21.80;99.90
7174;DHT22;3628;48.654;8.932;2023-08-24T07:02:47;21.90;99.90
7174;DHT22;3628;48.654;8.932;2023-08-24T07:05:13;22.00;99.90
7174;DHT22;3628;48.654;8.932;2023-08-24T07:07:39;22.10;99.90
7174;DHT22;3628;48.654;8.932;2023-08-24T07:10:05;22.20;99.90
7174;DHT22;3628;48.654;8.932;2023-08-24T07:12:31;22.30;99.90
7174;DHT22;3628;48.654;8.932;2023-08-24T07:14:57;22.30;99.90
7174;DHT22;3628;48.654;8.932;2023-08-24T07:17:23;22.30;99.90
7174;DHT22;3628;48.654;8.932;2023-08-24T07:19:48;22.40;99.90
7174;DHT22;3628;48.654;8.932;2023-08-24T07:22:14;22.50;99.90
7174;DHT22;3628;48.654;8.932;2023-08-24T07:24:39;22.70;99.90
7174;DHT22;3628;48.654;8.932;2023-08-24T07:27:05;22.90;99.90
7174;DHT22;3628;48.654;8.932;2023-08-24T07:29:30;23.10;99.90
7174;DHT22;3628;48.654;8.932;2023-08-24T07:31:56;23.40;99.90
7174;DHT22;3628;48.654;8.932;2023-08-24T07:34:22;23.60;99.90
7174;DHT22;3628;48.654;8.932;2023-08-24T07:36:48;23.80;99.90
7174;DHT22;3628;48.654;8.932;2023-08-24T07:39:14;24.00;99.90
7174;DHT22;3628;48.654;8.932;2023-08-24T07:41:44;24.30;99.90
7174;DHT22;3628;48.654;8.932;2023-08-24T07:44:10;24.60;99.90
7174;DHT22;3628;48.654;8.932;2023-08-24T07:46:38;25.00;99.90
7174;DHT22;3628;48.654;8.932;2023-08-24T07:49:04;25.20;99.90
7174;DHT22;3628;48.654;8.932;2023-08-24T07:51:30;25.30;99.90
7174;DHT22;3628;48.654;8.932;2023-08-24T07:53:55;25.60;99.90
7174;DHT22;3628;48.654;8.932;2023-08-24T07:56:21;25.70;99.90
7174;DHT22;3628;48.654;8.932;2023-08-24T07:58:48;25.80;99.90
7174;DHT22;3628;48.654;8.932;2023-08-24T08:01:13;26.00;99.90
7174;DHT22;3628;48.654;8.932;2023-08-24T08:03:39;26.10;99.90
7174;DHT22;3628;48.654;8.932;2023-08-24T08:06:04;26.20;99.90
7174;DHT22;3628;48.654;8.932;2023-08-24T08:08:30;26.40;99.90
7174;DHT22;3628;48.654;8.932;2023-08-24T08:11:00;26.60;99.90
7174;DHT22;3628;48.654;8.932;2023-08-24T08:13:26;26.90;99.90
7174;DHT22;3628;48.654;8.932;2023-08-24T08:15:52;27.10;99.90
7174;DHT22;3628;48.654;8.932;2023-08-24T08:18:17;27.40;99.90
7174;DHT22;3628;48.654;8.932;2023-08-24T08:20:43;27.30;99.90
7174;DHT22;3628;48.654;8.932;2023-08-24T08:23:08;27.50;99.90
7174;DHT22;3628;48.654;8.932;2023-08-24T08:25:34;27.60;99.90
7174;DHT22;3628;48.654;8.932;2023-08-24T08:27:59;27.80;99.90
7174;DHT22;3628;48.654;8.932;2023-08-24T08:30:25;27.60;99.90
7174;DHT22;3628;48.654;8.932;2023-08-24T08:32:50;27.70;99.90
7174;DHT22;3628;48.654;8.932;2023-08-24T08:35:21;28.00;99.90
7174;DHT22;3628;48.654;8.932;2023-08-24T08:37:47;28.30;99.90
7174;DHT22;3628;48.654;8.932;2023-08-24T08:40:17;28.60;99.90
7174;DHT22;3628;48.654;8.932;2023-08-24T08:42:43;28.80;99.90
7174;DHT22;3628;48.654;8.932;2023-08-24T08:45:10;29.00;99.90
7174;DHT22;3628;48.654;8.932;2023-08-24T08:47:35;29.30;99.90
7174;DHT22;3628;48.654;8.932;2023-08-24T08:50:02;29.50;99.90
7174;DHT22;3628;48.654;8.932;2023-08-24T08:52:29;29.60;98.90
7174;DHT22;3628;48.654;8.932;2023-08-24T08:54:54;29.80;98.20
7174;DHT22;3628;48.654;8.932;2023-08-24T08:57:23;29.90;97.20
7174;DHT22;3628;48.654;8.932;2023-08-24T08:59:51;30.00;97.00
7174;DHT22;3628;48.654;8.932;2023-08-24T09:02:19;30.20;96.30
7174;DHT22;3628;48.654;8.932;2023-08-24T09:04:45;30.40;95.80
7174;DHT22;3628;48.654;8.932;2023-08-24T09:07:13;30.50;95.20
7174;DHT22;3628;48.654;8.932;2023-08-24T09:09:39;30.70;94.50
7174;DHT22;3628;48.654;8.932;2023-08-24T09:12:06;30.90;94.60
7174;DHT22;3628;48.654;8.932;2023-08-24T09:14:33;31.20;94.10
7174;DHT22;3628;48.654;8.932;2023-08-24T09:16:58;31.30;93.30
7174;DHT22;3628;48.654;8.932;2023-08-24T09:19:33;31.30;92.50
7174;DHT22;3628;48.654;8.932;2023-08-24T09:22:04;31.70;92.40
7174;DHT22;3628;48.654;8.932;2023-08-24T09:24:34;31.60;91.80
7174;DHT22;3628;48.654;8.932;2023-08-24T09:27:05;31.80;90.40
7174;DHT22;3628;48.654;8.932;2023-08-24T09:29:39;31.90;89.60
7174;DHT22;3628;48.654;8.932;2023-08-24T09:32:08;32.10;88.50
7174;DHT22;3628;48.654;8.932;2023-08-24T09:34:33;32.20;85.80
7174;DHT22;3628;48.654;8.932;2023-08-24T09:36:59;32.40;85.10
7174;DHT22;3628;48.654;8.932;2023-08-24T09:39:24;32.60;83.90
7174;DHT22;3628;48.654;8.932;2023-08-24T09:41:50;32.60;82.50
7174;DHT22;3628;48.654;8.932;2023-08-24T09:44:19;32.40;82.90
7174;DHT22;3628;48.654;8.932;2023-08-24T09:46:45;32.60;82.70
7174;DHT22;3628;48.654;8.932;2023-08-24T09:49:11;32.50;83.20
7174;DHT22;3628;48.654;8.932;2023-08-24T09:51:38;32.50;82.90
7174;DHT22;3628;48.654;8.932;2023-08-24T09:54:09;32.40;83.00
7174;DHT22;3628;48.654;8.932;2023-08-24T09:56:39;32.40;83.90
7174;DHT22;3628;48.654;8.932;2023-08-24T09:59:13;32.50;84.70
7174;DHT22;3628;48.654;8.932;2023-08-24T10:01:43;32.50;84.40
7174;DHT22;3628;48.654;8.932;2023-08-24T10:04:10;32.50;84.00
7174;DHT22;3628;48.654;8.932;2023-08-24T10:06:38;32.60;83.70
7174;DHT22;3628;48.654;8.932;2023-08-24T10:09:07;32.70;83.70
7174;DHT22;3628;48.654;8.932;2023-08-24T10:11:36;32.80;83.60
7174;DHT22;3628;48.654;8.932;2023-08-24T10:17:00;32.50;83.60
7174;DHT22;3628;48.654;8.932;2023-08-24T10:19:28;32.60;84.20
7174;DHT22;3628;48.654;8.932;2023-08-24T10:21:55;32.70;84.20
7174;DHT22;3628;48.654;8.932;2023-08-24T10:24:22;32.80;83.60
7174;DHT22;3628;48.654;8.932;2023-08-24T10:26:48;33.10;83.40
7174;DHT22;3628;48.654;8.932;2023-08-24T10:29:16;33.20;82.60
7174;DHT22;3628;48.654;8.932;2023-08-24T10:31:42;33.50;82.20
7174;DHT22;3628;48.654;8.932;2023-08-24T10:34:09;33.50;81.40
7174;DHT22;3628;48.654;8.932;2023-08-24T10:36:37;33.60;81.30
7174;DHT22;3628;48.654;8.932;2023-08-24T10:39:03;33.70;81.20
7174;DHT22;3628;48.654;8.932;2023-08-24T10:41:51;33.90;81.00
7174;DHT22;3628;48.654;8.932;2023-08-24T10:44:37;34.20;80.60
7174;DHT22;3628;48.654;8.932;2023-08-24T10:49:38;34.50;78.30
7174;DHT22;3628;48.654;8.932;2023-08-24T10:54:44;34.50;78.60
7174;DHT22;3628;48.654;8.932;2023-08-24T10:57:27;34.40;78.80
7174;DHT22;3628;48.654;8.932;2023-08-24T11:00:13;34.30;78.20
7174;DHT22;3628;48.654;8.932;2023-08-24T11:02:47;34.30;78.70
7174;DHT22;3628;48.654;8.932;2023-08-24T11:05:18;34.50;79.40
7174;DHT22;3628;48.654;8.932;2023-08-24T11:07:51;34.90;78.80
7174;DHT22;3628;48.654;8.932;2023-08-24T11:10:17;35.20;77.60
7174;DHT22;3628;48.654;8.932;2023-08-24T11:15:32;35.50;74.80
7174;DHT22;3628;48.654;8.932;2023-08-24T11:18:24;35.70;74.70
7174;DHT22;3628;48.654;8.932;2023-08-24T11:21:00;35.90;73.30
7174;DHT22;3628;48.654;8.932;2023-08-24T11:23:25;35.80;72.80
7174;DHT22;3628;48.654;8.932;2023-08-24T11:25:53;35.90;72.70
7174;DHT22;3628;48.654;8.932;2023-08-24T11:28:21;35.80;72.50
7174;DHT22;3628;48.654;8.932;2023-08-24T11:30:47;35.60;72.20
7174;DHT22;3628;48.654;8.932;2023-08-24T11:33:13;35.70;72.80
7174;DHT22;3628;48.654;8.932;2023-08-24T11:35:43;35.80;71.90
7174;DHT22;3628;48.654;8.932;2023-08-24T11:38:10;36.00;71.60
7174;DHT22;3628;48.654;8.932;2023-08-24T11:40:35;35.90;71.90
7174;DHT22;3628;48.654;8.932;2023-08-24T11:43:01;35.90;71.40
7174;DHT22;3628;48.654;8.932;2023-08-24T11:45:31;36.20;70.90
7174;DHT22;3628;48.654;8.932;2023-08-24T11:47:59;36.20;70.10
7174;DHT22;3628;48.654;8.932;2023-08-24T11:50:26;36.30;70.70
7174;DHT22;3628;48.654;8.932;2023-08-24T11:52:53;36.70;70.40
7174;DHT22;3628;48.654;8.932;2023-08-24T11:55:21;36.90;69.00
7174;DHT22;3628;48.654;8.932;2023-08-24T11:57:47;37.10;68.40
7174;DHT22;3628;48.654;8.932;2023-08-24T12:00:13;37.40;67.70
7174;DHT22;3628;48.654;8.932;2023-08-24T12:02:40;37.60;66.20
7174;DHT22;3628;48.654;8.932;2023-08-24T12:05:07;37.50;66.00
7174;DHT22;3628;48.654;8.932;2023-08-24T12:07:33;37.80;65.10
7174;DHT22;3628;48.654;8.932;2023-08-24T12:10:02;38.00;64.50
7174;DHT22;3628;48.654;8.932;2023-08-24T12:12:27;38.20;63.80
7174;DHT22;3628;48.654;8.932;2023-08-24T12:14:55;37.80;63.70
7174;DHT22;3628;48.654;8.932;2023-08-24T12:17:20;38.10;63.50
7174;DHT22;3628;48.654;8.932;2023-08-24T12:19:58;38.30;62.70
7174;DHT22;3628;48.654;8.932;2023-08-24T12:22:24;38.20;62.70
7174;DHT22;3628;48.654;8.932;2023-08-24T12:24:50;38.30;62.20
7174;DHT22;3628;48.654;8.932;2023-08-24T12:27:25;38.10;61.30
7174;DHT22;3628;48.654;8.932;2023-08-24T12:29:51;38.10;61.90
7174;DHT22;3628;48.654;8.932;2023-08-24T12:32:18;38.30;62.10
7174;DHT22;3628;48.654;8.932;2023-08-24T12:34:50;38.40;62.00
7174;DHT22;3628;48.654;8.932;2023-08-24T12:37:20;38.40;60.40
7174;DHT22;3628;48.654;8.932;2023-08-24T12:39:45;38.40;60.40
7174;DHT22;3628;48.654;8.932;2023-08-24T12:42:11;38.10;60.90
7174;DHT22;3628;48.654;8.932;2023-08-24T12:44:37;38.20;61.90
7174;DHT22;3628;48.654;8.932;2023-08-24T12:47:03;38.20;61.30
7174;DHT22;3628;48.654;8.932;2023-08-24T12:49:29;38.30;61.20
7174;DHT22;3628;48.654;8.932;2023-08-24T12:51:54;38.60;60.00
7174;DHT22;3628;48.654;8.932;2023-08-24T12:54:20;38.30;60.00
7174;DHT22;3628;48.654;8.932;2023-08-24T12:56:45;38.20;60.30
7174;DHT22;3628;48.654;8.932;2023-08-24T12:59:11;38.30;58.60
7174;DHT22;3628;48.654;8.932;2023-08-24T13:01:37;38.20;59.00
7174;DHT22;3628;48.654;8.932;2023-08-24T13:04:04;38.10;58.50
7174;DHT22;3628;48.654;8.932;2023-08-24T13:06:29;38.40;57.70
7174;DHT22;3628;48.654;8.932;2023-08-24T13:08:55;38.60;57.00
7174;DHT22;3628;48.654;8.932;2023-08-24T13:11:21;38.60;57.50
7174;DHT22;3628;48.654;8.932;2023-08-24T13:13:47;38.80;56.80
7174;DHT22;3628;48.654;8.932;2023-08-24T13:16:13;38.70;57.50
7174;DHT22;3628;48.654;8.932;2023-08-24T13:18:38;38.70;56.10
7174;DHT22;3628;48.654;8.932;2023-08-24T13:21:04;38.70;56.00
7174;DHT22;3628;48.654;8.932;2023-08-24T13:23:29;38.60;57.20
7174;DHT22;3628;48.654;8.932;2023-08-24T13:25:57;38.80;57.20
7174;DHT22;3628;48.654;8.932;2023-08-24T13:28:23;39.10;57.10
7174;DHT22;3628;48.654;8.932;2023-08-24T13:30:49;39.30;56.50
7174;DHT22;3628;48.654;8.932;2023-08-24T13:33:14;39.60;56.40
7174;DHT22;3628;48.654;8.932;2023-08-24T13:35:40;39.70;55.90
7174;DHT22;3628;48.654;8.932;2023-08-24T13:38:06;39.60;56.00
7174;DHT22;3628;48.654;8.932;2023-08-24T13:40:31;39.60;55.80
7174;DHT22;3628;48.654;8.932;2023-08-24T13:42:57;39.60;55.40
7174;DHT22;3628;48.654;8.932;2023-08-24T13:45:22;39.60;54.80
7174;DHT22;3628;48.654;8.932;2023-08-24T13:47:48;39.50;54.40
7174;DHT22;3628;48.654;8.932;2023-08-24T13:50:14;39.60;54.10
7174;DHT22;3628;48.654;8.932;2023-08-24T13:52:39;39.40;54.50
7174;DHT22;3628;48.654;8.932;2023-08-24T13:55:05;39.30;55.10
7174;DHT22;3628;48.654;8.932;2023-08-24T13:57:31;39.20;55.10
7174;DHT22;3628;48.654;8.932;2023-08-24T13:59:56;39.00;55.50
7174;DHT22;3628;48.654;8.932;2023-08-24T14:02:22;38.70;56.10
7174;DHT22;3628;48.654;8.932;2023-08-24T14:04:47;38.50;56.50
7174;DHT22;3628;48.654;8.932;2023-08-24T14:07:13;38.60;56.20
7174;DHT22;3628;48.654;8.932;2023-08-24T14:09:38;38.50;56.50
7174;DHT22;3628;48.654;8.932;2023-08-24T14:12:04;38.50;56.50
7174;DHT22;3628;48.654;8.932;2023-08-24T14:14:29;38.40;56.60
7174;DHT22;3628;48.654;8.932;2023-08-24T14:16:56;38.10;56.90
7174;DHT22;3628;48.654;8.932;2023-08-24T14:19:22;38.00;57.60
7174;DHT22;3628;48.654;8.932;2023-08-24T14:21:48;37.50;57.50
7174;DHT22;3628;48.654;8.932;2023-08-24T14:24:14;37.30;58.40
7174;DHT22;3628;48.654;8.932;2023-08-24T14:26:39;37.20;59.10
7174;DHT22;3628;48.654;8.932;2023-08-24T14:29:10;37.20;58.80
7174;DHT22;3628;48.654;8.932;2023-08-24T14:31:36;37.10;58.80
7174;DHT22;3628;48.654;8.932;2023-08-24T14:34:02;37.00;59.00
7174;DHT22;3628;48.654;8.932;2023-08-24T14:36:29;36.80;59.20
7174;DHT22;3628;48.654;8.932;2023-08-24T14:38:54;36.50;59.40
7174;DHT22;3628;48.654;8.932;2023-08-24T14:41:20;36.40;59.60
7174;DHT22;3628;48.654;8.932;2023-08-24T14:43:46;36.10;60.20
7174;DHT22;3628;48.654;8.932;2023-08-24T14:46:13;35.90;61.60
7174;DHT22;3628;48.654;8.932;2023-08-24T14:48:38;35.60;63.60
7174;DHT22;3628;48.654;8.932;2023-08-24T14:51:05;35.00;64.40
7174;DHT22;3628;48.654;8.932;2023-08-24T14:53:31;34.60;65.10
7174;DHT22;3628;48.654;8.932;2023-08-24T14:55:57;33.30;70.60
7174;DHT22;3628;48.654;8.932;2023-08-24T14:58:24;31.90;78.30
7174;DHT22;3628;48.654;8.932;2023-08-24T15:00:51;30.10;87.70
7174;DHT22;3628;48.654;8.932;2023-08-24T15:03:17;29.00;91.40
7174;DHT22;3628;48.654;8.932;2023-08-24T15:05:55;28.00;95.10
7174;DHT22;3628;48.654;8.932;2023-08-24T15:08:21;27.40;99.90
7174;DHT22;3628;48.654;8.932;2023-08-24T15:10:48;26.90;99.90
7174;DHT22;3628;48.654;8.932;2023-08-24T15:13:14;26.50;99.90
7174;DHT22;3628;48.654;8.932;2023-08-24T15:15:39;26.30;99.90
7174;DHT22;3628;48.654;8.932;2023-08-24T15:18:05;26.20;99.90
7174;DHT22;3628;48.654;8.932;2023-08-24T15:20:31;26.20;99.90
7174;DHT22;3628;48.654;8.932;2023-08-24T15:22:58;26.10;99.90
7174;DHT22;3628;48.654;8.932;2023-08-24T15:25:24;25.90;99.90
7174;DHT22;3628;48.654;8.932;2023-08-24T15:27:50;25.80;99.90
7174;DHT22;3628;48.654;8.932;2023-08-24T15:30:15;25.80;99.90
7174;DHT22;3628;48.654;8.932;2023-08-24T15:32:41;25.70;99.90
7174;DHT22;3628;48.654;8.932;2023-08-24T15:35:07;25.60;99.90
7174;DHT22;3628;48.654;8.932;2023-08-24T15:37:32;25.50;99.90
7174;DHT22;3628;48.654;8.932;2023-08-24T15:39:58;25.40;99.90
7174;DHT22;3628;48.654;8.932;2023-08-24T15:42:24;25.30;99.90
7174;DHT22;3628;48.654;8.932;2023-08-24T15:44:49;25.40;99.90
7174;DHT22;3628;48.654;8.932;2023-08-24T15:47:15;25.20;99.90
7174;DHT22;3628;48.654;8.932;2023-08-24T15:49:40;25.20;99.90
7174;DHT22;3628;48.654;8.932;2023-08-24T15:52:07;25.20;99.90
7174;DHT22;3628;48.654;8.932;2023-08-24T15:54:32;25.20;99.90
7174;DHT22;3628;48.654;8.932;2023-08-24T15:56:58;25.20;99.90
7174;DHT22;3628;48.654;8.932;2023-08-24T15:59:24;25.20;99.90
7174;DHT22;3628;48.654;8.932;2023-08-24T16:01:51;25.20;99.90
7174;DHT22;3628;48.654;8.932;2023-08-24T16:04:16;25.30;99.90
7174;DHT22;3628;48.654;8.932;2023-08-24T16:06:43;25.30;99.90
7174;DHT22;3628;48.654;8.932;2023-08-24T16:09:08;25.30;99.90
7174;DHT22;3628;48.654;8.932;2023-08-24T16:11:34;25.50;99.90